Rowlett, Texas
Current Conditions -  °F | °C
As of 3:35 AM on Friday 28 Nov 2014 (Local Time) from KF46 Reporting Station
Clear Clear  
Wind Chill:   Ceiling: Unl
Heat Index:   Visibility: 10mi
Dew Point:   Wind: 7mph
Humidity: 67%   Direction: 160°SSE
Pressure: 30.3"   Gusts: NA
Location:  32.9°N, 96.57°W
Report Text: KF46 280935Z AUTO 16006KT 10SM CLR 06/00 A3030 RMK AO2 T00551002
Loading
Personal Weather Stations






























Interactive Weather Map New forecast layout! Learn more

10-Day Weather Forecast

Advertisements
Track Severe Weather on mobile